Novi, MI (48375)

4:28 AM EST on January 20, 2017 (GMT -0500)
Whispering Meadows - S of 9, E of MB | | Change Station
Active Advisory: Special Statement

Elev 853 ft 42.45 °N, 83.45 °W | Updated 2 minutes ago

Fog
Fog
32.0 °F
Feels Like 32 °F
N
0.0
Wind Variable Wind from SE
Gusts 0.0 mph

Today
High -- | Low -- °F
--% Chance of Precip.
Yesterday
High -- | Low -- °F
Precip. -- in
Pressure 29.78 in
Visibility 0.5 miles
Clouds
Windchill 32 °F
Dew Point 31 °F
Humidity 96%
Rainfall 0.00 in
Snow Depth Not available.
7:57 AM 5:32 PM
Last Quarter, 46% visible
METAR KPTK 200853Z 12006KT 1/2SM R09R/3000V4000FT FZFG VV002 M01/M02 A2976 RMK AO2 SLP084 I3003 T10061017 56025
Pressure 29.78 in
Visibility 0.5 miles
Clouds
Windchill 32 °F
Dew Point 31 °F
Humidity 96%
Rainfall 0.00 in
Snow Depth Not available.
7:57 AM 5:32 PM
Last Quarter, 46% visible
METAR KPTK 200853Z 12006KT 1/2SM R09R/3000V4000FT FZFG VV002 M01/M02 A2976 RMK AO2 SLP084 I3003 T10061017 56025

Get Your Daily Forecast Email!

Thanks for signing up!

Be on the lookout for a verification email in your inbox.

You'll start receiving the daily forecast at 8 AM.

×

10-Day Weather Forecast

Almanac

Astronomy

Jan. 20, 2017 Rise Set
Actual Time
Civil Twilight
Nautical Twilight
Astronomical Twilight
Moon
Length of Visible Light
Length of Day
Tomorrow will be .
, % of the Moon is Illuminated

Today's Extremes

State Highs State Lows

Community

WunderPhotos

Upload Photos

1,962,540 photos uploaded!

WunderBlog® & News

Nearby

Air Quality

  Air Quality AQ Index Pollutant
Not available.

Snow Depth

Station Depth Elevation

Earthquake Activity

City Distance Mag. Time & Date
Minimum magnitude displayed is 2.5.

Coastal Water Temperatures

Place Temperature

Stations

Nearby Weather Stations

Station Location Temp. Windchill Dew Point Humidity Wind Precip. Elev Updated Type
                   

Watches & Warnings

Special Statement
Issued: 4:01 AM EST Jan. 20, 2017 – National Weather Service

... Patchy dense fog through this morning...

Widespread fog will be locally dense through the morning commute.
In addition, roads will become wet as rain gradually moves into
the area. Motorists are cautioned to expect rapid decreases in
visibility and are urged to allow for extra braking distance this
morning.


Jvc

401 am EST Fri Jan 20 2017

... Patchy dense fog through this morning...

Widespread fog will be locally dense through the morning commute.
In addition, roads will become wet as rain gradually moves into
the area. Motorists are cautioned to expect rapid decreases in
visibility and are urged to allow for extra braking distance this
morning.


Jvc